Time;durP1;ratioP1;P1;durP2;ratioP2;P2;SDS_P1;SDS_P2;PMS_P1;PMS_P2;Temp;Humidity;BMP_temperature;BMP_pressure;BME280_temperature;BME280_humidity;BME280_pressure;Samples;Min_cycle;Max_cycle;Signal;HPM_P1;HPM_P2
2022/05/25 00:01:36;;;;;;;4.20;2.35;;;11.80;99.90;;;;;;4944842;28;40979;-74
2022/05/25 00:04:04;;;;;;;4.45;2.03;;;11.70;99.90;;;;;;4936325;28;40731;-74
2022/05/25 00:06:30;;;;;;;7.15;2.42;;;11.70;99.90;;;;;;4958747;28;40013;-74
2022/05/25 00:08:56;;;;;;;11.30;2.67;;;11.70;99.90;;;;;;4944545;28;36577;-74
2022/05/25 00:11:23;;;;;;;5.70;2.30;;;11.70;99.90;;;;;;4945246;28;39351;-74
2022/05/25 00:13:49;;;;;;;4.55;2.83;;;11.70;99.90;;;;;;4949175;28;38681;-74
2022/05/25 00:16:16;;;;;;;5.50;2.15;;;11.70;99.90;;;;;;4949401;28;39145;-74
2022/05/25 00:19:59;;;;;;;7.60;2.88;;;11.80;99.90;;;;;;4946689;28;37060;-75
2022/05/25 00:21:30;;;;;;;9.15;2.83;;;11.80;99.90;;;;;;4949270;28;48579;-75
2022/05/25 00:23:57;;;;;;;6.40;3.15;;;11.80;99.90;;;;;;4946984;28;38990;-74
2022/05/25 00:26:23;;;;;;;9.68;3.80;;;11.80;99.90;;;;;;4959027;28;37933;-74
2022/05/25 00:28:49;;;;;;;10.05;2.83;;;11.80;99.90;;;;;;4951963;28;37651;-74
2022/05/25 00:31:15;;;;;;;13.15;3.65;;;11.80;99.90;;;;;;4947298;28;40053;-74
2022/05/25 00:33:41;;;;;;;10.23;4.40;;;11.80;99.90;;;;;;4946014;28;40543;-74
2022/05/25 00:36:08;;;;;;;7.63;3.30;;;11.90;99.90;;;;;;4943216;28;38983;-74
2022/05/25 00:38:34;;;;;;;13.35;4.50;;;11.90;99.90;;;;;;4947633;28;37057;-74
2022/05/25 00:41:01;;;;;;;10.65;4.10;;;11.90;99.90;;;;;;4946133;28;39523;-74
2022/05/25 00:43:27;;;;;;;9.63;3.60;;;11.90;99.90;;;;;;4953613;28;47341;-74
2022/05/25 00:46:04;;;;;;;9.48;4.25;;;11.90;99.90;;;;;;4943812;28;38445;-74
2022/05/25 00:48:33;;;;;;;12.63;5.38;;;11.90;99.90;;;;;;4963147;28;48682;-74
2022/05/25 00:51:15;;;;;;;8.95;4.65;;;12.00;99.90;;;;;;4946012;28;37616;-75
2022/05/25 00:53:44;;;;;;;9.52;4.55;;;11.90;99.90;;;;;;4945916;28;48466;-74
2022/05/25 00:56:14;;;;;;;11.98;5.55;;;11.90;99.90;;;;;;4949629;28;39166;-74
2022/05/25 00:58:49;;;;;;;14.43;6.30;;;11.90;99.90;;;;;;4942039;28;37280;-74
2022/05/25 01:01:15;;;;;;;17.67;6.32;;;11.90;99.90;;;;;;4950382;28;40670;-74
2022/05/25 01:03:41;;;;;;;13.55;6.30;;;11.90;99.90;;;;;;4943771;28;38986;-74
2022/05/25 01:06:43;;;;;;;15.02;5.85;;;11.90;99.90;;;;;;4946957;28;38574;-74
2022/05/25 01:09:18;;;;;;;12.35;6.80;;;11.90;99.90;;;;;;4943488;28;37867;-74
2022/05/25 01:12:15;;;;;;;13.52;6.65;;;11.90;99.90;;;;;;4945891;28;38469;-75
2022/05/25 01:15:01;;;;;;;15.65;6.68;;;11.90;99.90;;;;;;4947360;28;48704;-74
2022/05/25 01:17:36;;;;;;;12.40;6.75;;;11.90;99.90;;;;;;4943777;28;49008;-74
2022/05/25 01:20:13;;;;;;;16.77;7.45;;;11.90;99.90;;;;;;4959644;28;38886;-75
2022/05/25 01:23:13;;;;;;;13.43;7.15;;;11.90;99.90;;;;;;4943714;28;39844;-73
2022/05/25 01:26:17;;;;;;;17.70;7.65;;;11.80;99.90;;;;;;4950141;28;48636;-76
2022/05/25 01:29:09;;;;;;;10.13;6.78;;;11.80;99.90;;;;;;4948247;28;48460;-76
2022/05/25 01:32:07;;;;;;;14.52;8.30;;;11.80;99.90;;;;;;4940883;28;48290;-74
2022/05/25 01:34:39;;;;;;;18.73;8.20;;;11.80;99.90;;;;;;4943419;28;47399;-74
2022/05/25 01:37:16;;;;;;;14.60;7.25;;;11.80;99.90;;;;;;4941300;28;39290;-75
2022/05/25 01:39:58;;;;;;;12.38;7.25;;;11.70;99.90;;;;;;4951707;28;39170;-74
2022/05/25 01:42:34;;;;;;;14.55;7.88;;;11.70;99.90;;;;;;4961661;28;38701;-74
2022/05/25 01:45:07;;;;;;;15.40;8.23;;;11.70;99.90;;;;;;4947696;28;20131;-74
2022/05/25 01:47:35;;;;;;;14.48;8.25;;;11.70;99.90;;;;;;4944289;28;47443;-75
2022/05/25 01:50:09;;;;;;;13.23;7.00;;;11.70;99.90;;;;;;4943308;28;39203;-74
2022/05/25 01:52:45;;;;;;;12.00;8.60;;;11.70;99.90;;;;;;4945021;28;37967;-73
2022/05/25 01:55:24;;;;;;;13.25;8.30;;;11.70;99.90;;;;;;4943604;28;38747;-74
2022/05/25 01:57:56;;;;;;;12.82;7.25;;;11.70;99.90;;;;;;4942701;28;39055;-74
2022/05/25 02:00:32;;;;;;;14.55;8.15;;;11.70;99.90;;;;;;4949711;28;38856;-74
2022/05/25 02:05:58;;;;;;;13.45;7.68;;;11.60;99.90;;;;;;4950888;28;49283;-74
2022/05/25 02:08:42;;;;;;;14.48;9.40;;;11.60;99.90;;;;;;4956813;28;39417;-74
2022/05/25 02:11:12;;;;;;;16.67;8.70;;;11.60;99.90;;;;;;4949942;28;38284;-74
2022/05/25 02:13:41;;;;;;;12.63;8.20;;;11.60;99.90;;;;;;4960169;28;38063;-74
2022/05/25 02:16:30;;;;;;;14.75;8.65;;;11.60;99.90;;;;;;4944722;28;39527;-74
2022/05/25 02:19:10;;;;;;;15.57;9.85;;;11.60;99.90;;;;;;4941390;28;40336;-74
2022/05/25 02:21:42;;;;;;;13.05;8.65;;;11.60;99.90;;;;;;4943802;28;48812;-74
2022/05/25 02:24:21;;;;;;;18.52;9.82;;;11.50;99.90;;;;;;4940560;28;36856;-74
2022/05/25 02:26:52;;;;;;;16.35;9.20;;;11.50;99.90;;;;;;4944086;28;39625;-74
2022/05/25 02:29:41;;;;;;;13.43;8.50;;;11.50;99.90;;;;;;4941505;28;39268;-74
2022/05/25 02:32:40;;;;;;;16.90;10.90;;;11.50;99.90;;;;;;4956462;28;39644;-74
2022/05/25 02:35:08;;;;;;;12.32;8.65;;;11.50;99.90;;;;;;4946848;28;37214;-74
2022/05/25 02:37:35;;;;;;;16.73;10.75;;;11.40;99.90;;;;;;4950881;28;39796;-74
2022/05/25 02:40:05;;;;;;;18.83;9.88;;;11.40;99.90;;;;;;4958889;28;39621;-74
2022/05/25 02:42:32;;;;;;;19.30;10.93;;;11.30;99.90;;;;;;4942708;28;41867;-74
2022/05/25 02:44:58;;;;;;;15.88;9.07;;;11.30;99.90;;;;;;4943464;28;37919;-74
2022/05/25 02:47:24;;;;;;;14.52;9.73;;;11.30;99.90;;;;;;4956520;28;40746;-74
2022/05/25 02:49:50;;;;;;;17.27;10.75;;;11.30;99.90;;;;;;4946176;28;38338;-74
2022/05/25 02:52:16;;;;;;;17.05;10.30;;;11.20;99.90;;;;;;4964792;28;39589;-74
2022/05/25 02:54:42;;;;;;;15.27;9.35;;;11.30;99.90;;;;;;4956350;28;38809;-74
2022/05/25 02:57:08;;;;;;;12.60;9.10;;;11.20;99.90;;;;;;4940653;28;39834;-74
2022/05/25 02:59:34;;;;;;;17.45;9.20;;;11.20;99.90;;;;;;4946265;28;39586;-74
2022/05/25 03:02:04;;;;;;;13.63;9.40;;;11.20;99.90;;;;;;4959414;28;39446;-74
2022/05/25 03:04:32;;;;;;;13.60;10.07;;;11.20;99.90;;;;;;4944212;28;47310;-74
2022/05/25 03:06:58;;;;;;;20.00;11.27;;;11.20;99.90;;;;;;4964919;28;39722;-75
2022/05/25 03:09:24;;;;;;;22.63;12.32;;;11.20;99.90;;;;;;4941860;28;39399;-75
2022/05/25 03:11:51;;;;;;;21.00;12.15;;;11.10;99.90;;;;;;4957050;28;39943;-75
2022/05/25 03:14:17;;;;;;;23.20;12.75;;;11.10;99.90;;;;;;4939656;28;37493;-75
2022/05/25 03:16:43;;;;;;;19.05;11.90;;;11.10;99.90;;;;;;4944622;28;38705;-75
2022/05/25 03:19:09;;;;;;;22.67;12.55;;;11.00;99.90;;;;;;4940814;28;38673;-75
2022/05/25 03:21:35;;;;;;;19.83;11.80;;;11.00;99.90;;;;;;4942247;28;38655;-75
2022/05/25 03:24:01;;;;;;;16.00;10.90;;;11.00;99.90;;;;;;4958127;28;38837;-75
2022/05/25 03:26:27;;;;;;;19.92;11.95;;;11.00;99.90;;;;;;4951627;28;38873;-74
2022/05/25 03:28:53;;;;;;;16.08;11.75;;;11.00;99.90;;;;;;4953215;28;39960;-74
2022/05/25 03:31:19;;;;;;;25.88;14.10;;;10.90;99.90;;;;;;4947496;28;38818;-74
2022/05/25 03:33:46;;;;;;;16.80;11.23;;;10.90;99.90;;;;;;4947403;28;37228;-74
2022/05/25 03:36:12;;;;;;;18.30;12.57;;;10.90;99.90;;;;;;4965477;28;40612;-75
2022/05/25 03:38:38;;;;;;;22.75;13.20;;;10.80;99.90;;;;;;4948644;28;39251;-74
2022/05/25 03:41:04;;;;;;;16.60;11.73;;;10.90;99.90;;;;;;4961005;28;38603;-75
2022/05/25 03:43:36;;;;;;;23.92;13.70;;;10.90;99.90;;;;;;4947708;28;37601;-75
2022/05/25 03:46:03;;;;;;;22.02;13.07;;;10.80;99.90;;;;;;4950816;28;40544;-77
2022/05/25 03:48:29;;;;;;;18.45;12.52;;;10.80;99.90;;;;;;4948232;28;40374;-75
2022/05/25 03:50:55;;;;;;;19.73;15.27;;;10.90;99.90;;;;;;4969556;28;39530;-75
2022/05/25 03:53:22;;;;;;;22.25;12.95;;;10.90;99.90;;;;;;4948020;28;39418;-75
2022/05/25 03:55:48;;;;;;;18.13;13.50;;;10.90;99.90;;;;;;4948575;28;39315;-75
2022/05/25 03:58:14;;;;;;;23.70;12.80;;;10.90;99.90;;;;;;4972610;28;39587;-76
2022/05/25 04:00:40;;;;;;;20.10;13.20;;;10.90;99.90;;;;;;4949918;28;38822;-75
2022/05/25 04:03:15;;;;;;;17.58;11.95;;;10.90;99.90;;;;;;4948344;28;39063;-75
2022/05/25 04:05:42;;;;;;;18.55;12.40;;;10.90;99.90;;;;;;4949014;28;38974;-75
2022/05/25 04:08:10;;;;;;;21.25;11.70;;;10.90;99.90;;;;;;4941626;28;40109;-75
2022/05/25 04:10:36;;;;;;;17.73;11.75;;;10.90;99.90;;;;;;4943043;28;40078;-75
2022/05/25 04:13:02;;;;;;;21.02;12.00;;;10.90;99.90;;;;;;4948366;28;37654;-74
2022/05/25 04:15:30;;;;;;;17.38;11.23;;;10.90;99.90;;;;;;4947207;28;48768;-75
2022/05/25 04:17:56;;;;;;;28.58;12.65;;;10.90;99.90;;;;;;4944228;28;39859;-75
2022/05/25 04:20:24;;;;;;;28.27;13.63;;;10.90;99.90;;;;;;4942676;28;39139;-76
2022/05/25 04:22:51;;;;;;;20.23;12.20;;;10.90;99.90;;;;;;4941385;28;38459;-76
2022/05/25 04:25:19;;;;;;;19.67;12.23;;;10.90;99.90;;;;;;4937469;28;41156;-76
2022/05/25 04:27:48;;;;;;;19.20;12.35;;;10.90;99.90;;;;;;4939717;28;39438;-75
2022/05/25 04:30:18;;;;;;;21.13;13.02;;;10.90;99.90;;;;;;4942014;28;38498;-76
2022/05/25 04:32:45;;;;;;;21.98;13.95;;;10.90;99.90;;;;;;4956865;28;38562;-75
2022/05/25 04:35:13;;;;;;;20.88;13.45;;;10.90;99.90;;;;;;4956136;28;40661;-75
2022/05/25 04:37:57;;;;;;;24.73;14.60;;;10.90;99.90;;;;;;4941302;28;38055;-76
2022/05/25 04:40:32;;;;;;;19.02;11.82;;;11.00;99.90;;;;;;4944396;28;39404;-76
2022/05/25 04:43:03;;;;;;;20.70;13.85;;;11.00;99.90;;;;;;4944400;28;38076;-76
2022/05/25 04:45:29;;;;;;;21.00;13.93;;;11.00;99.90;;;;;;4965640;28;47552;-76
2022/05/25 04:47:58;;;;;;;24.55;14.00;;;11.10;99.90;;;;;;4954995;28;37998;-75
2022/05/25 04:50:26;;;;;;;24.08;14.65;;;11.10;99.90;;;;;;4944518;28;38907;-75
2022/05/25 04:52:53;;;;;;;22.23;14.32;;;11.20;99.90;;;;;;4966203;28;37525;-76
2022/05/25 04:58:05;;;;;;;24.15;15.60;;;11.30;99.90;;;;;;4937559;28;39582;-75
2022/05/25 05:00:33;;;;;;;26.27;15.00;;;11.40;99.90;;;;;;4948389;28;39431;-75
2022/05/25 05:02:59;;;;;;;28.85;16.88;;;11.40;99.90;;;;;;4951072;28;37900;-76
2022/05/25 05:05:25;;;;;;;30.10;16.25;;;11.50;99.90;;;;;;4961826;28;40540;-75
2022/05/25 05:07:51;;;;;;;24.40;15.25;;;11.60;99.90;;;;;;4958980;28;39289;-76
2022/05/25 05:10:18;;;;;;;24.13;16.02;;;11.70;99.90;;;;;;4934934;28;39153;-76
2022/05/25 05:12:44;;;;;;;30.20;16.90;;;11.70;99.90;;;;;;4962493;28;38377;-75
2022/05/25 05:15:11;;;;;;;29.80;16.38;;;11.80;99.90;;;;;;4953119;28;39668;-75
2022/05/25 05:17:37;;;;;;;27.30;16.40;;;11.80;99.90;;;;;;4953227;28;37423;-75
2022/05/25 05:20:04;;;;;;;23.95;15.38;;;11.90;99.90;;;;;;4966371;28;39138;-76
2022/05/25 05:22:30;;;;;;;25.77;15.77;;;12.00;99.90;;;;;;4947917;28;38434;-76
2022/05/25 05:24:57;;;;;;;27.42;16.35;;;12.00;99.90;;;;;;4963951;28;39439;-75
2022/05/25 05:27:23;;;;;;;26.02;15.82;;;12.00;99.90;;;;;;4949116;28;37976;-76
2022/05/25 05:29:49;;;;;;;25.52;16.23;;;12.00;99.90;;;;;;4962550;28;40154;-76
2022/05/25 05:32:15;;;;;;;27.30;15.57;;;12.10;99.90;;;;;;4946131;28;38102;-76
2022/05/25 05:34:41;;;;;;;24.80;17.25;;;12.20;99.90;;;;;;4948734;28;39949;-77
2022/05/25 05:37:16;;;;;;;26.13;16.90;;;12.10;99.90;;;;;;4952743;28;39575;-76
2022/05/25 05:39:46;;;;;;;24.52;15.98;;;12.20;99.90;;;;;;4948722;28;39095;-76
2022/05/25 05:42:17;;;;;;;20.70;15.10;;;12.10;99.90;;;;;;4950588;28;37647;-77
2022/05/25 05:44:49;;;;;;;29.83;16.10;;;12.20;99.90;;;;;;4941258;28;38800;-76
2022/05/25 05:47:18;;;;;;;;;;;12.20;99.90;;;;;;4946682;28;37827;-76
2022/05/25 05:49:44;;;;;;;25.75;16.35;;;12.20;99.90;;;;;;4950404;28;39421;-76
2022/05/25 05:52:10;;;;;;;28.17;17.48;;;12.20;99.90;;;;;;4946620;28;37276;-77
2022/05/25 05:54:38;;;;;;;25.90;15.82;;;12.30;99.90;;;;;;4946929;28;39867;-76
2022/05/25 05:57:05;;;;;;;25.08;17.15;;;12.40;99.90;;;;;;4959731;28;40670;-76
2022/05/25 05:59:31;;;;;;;22.98;17.00;;;12.60;99.90;;;;;;4951289;28;38592;-75
2022/05/25 06:01:57;;;;;;;25.15;17.08;;;12.50;99.90;;;;;;4965366;28;37962;-74
2022/05/25 06:04:23;;;;;;;26.42;16.55;;;12.60;99.90;;;;;;4948462;28;38776;-75
2022/05/25 06:06:49;;;;;;;27.27;17.00;;;12.60;99.90;;;;;;4964163;28;40575;-74
2022/05/25 06:09:16;;;;;;;25.52;16.38;;;12.70;99.90;;;;;;4940957;28;39193;-74
2022/05/25 06:11:43;;;;;;;25.50;16.35;;;12.70;99.90;;;;;;4962297;28;39077;-74
2022/05/25 06:14:10;;;;;;;24.83;16.25;;;12.70;99.90;;;;;;4949602;28;38245;-75
2022/05/25 06:19:27;;;;;;;21.80;14.43;;;12.70;99.90;;;;;;4945063;28;39950;-75
2022/05/25 06:22:01;;;;;;;25.30;15.15;;;13.00;99.90;;;;;;4949699;28;38212;-75
2022/05/25 06:24:29;;;;;;;19.77;13.25;;;13.30;99.90;;;;;;4958051;28;48262;-75
2022/05/25 06:26:56;;;;;;;23.65;14.40;;;13.60;99.90;;;;;;4964641;28;38515;-76
2022/05/25 06:29:22;;;;;;;17.88;13.40;;;13.60;99.90;;;;;;4943176;28;39607;-75
2022/05/25 06:31:49;;;;;;;18.63;13.25;;;13.70;99.90;;;;;;4947916;28;37200;-75
2022/05/25 06:34:15;;;;;;;21.83;12.90;;;13.80;99.90;;;;;;4942251;28;38832;-74
2022/05/25 06:36:42;;;;;;;20.38;13.80;;;13.90;99.90;;;;;;4942583;28;37634;-74
2022/05/25 06:39:08;;;;;;;20.67;14.00;;;13.80;99.90;;;;;;4944814;28;38604;-74
2022/05/25 06:41:35;;;;;;;21.77;13.32;;;13.90;99.90;;;;;;4946987;28;37157;-74
2022/05/25 06:44:01;;;;;;;25.05;14.50;;;13.90;99.90;;;;;;4947352;28;38315;-75
2022/05/25 06:46:27;;;;;;;16.45;13.05;;;13.90;99.90;;;;;;4946919;28;48687;-75
2022/05/25 06:48:57;;;;;;;20.77;13.60;;;13.90;99.90;;;;;;4946057;28;39665;-74
2022/05/25 06:51:34;;;;;;;19.10;14.27;;;13.80;99.90;;;;;;4945013;28;38481;-74
2022/05/25 06:54:02;;;;;;;21.33;13.32;;;13.70;99.90;;;;;;4945903;28;41294;-76
2022/05/25 06:56:28;;;;;;;18.52;13.27;;;13.70;99.90;;;;;;4949446;28;47072;-77
2022/05/25 06:58:56;;;;;;;19.38;14.57;;;13.90;99.90;;;;;;4950844;28;39860;-76
2022/05/25 07:01:23;;;;;;;20.45;14.38;;;14.30;99.90;;;;;;4954906;28;36709;-77
2022/05/25 07:03:52;;;;;;;22.30;15.57;;;14.30;99.90;;;;;;4948746;28;39435;-76
2022/05/25 07:06:19;;;;;;;15.57;12.50;;;14.30;99.90;;;;;;4948316;28;38705;-75
2022/05/25 07:08:45;;;;;;;22.70;12.77;;;14.20;99.90;;;;;;4950672;28;38733;-76
2022/05/25 07:11:12;;;;;;;20.75;11.98;;;14.20;99.90;;;;;;4950090;28;37409;-75
2022/05/25 07:13:40;;;;;;;17.15;11.68;;;14.60;99.90;;;;;;4950540;28;39907;-76
2022/05/25 07:16:10;;;;;;;18.20;11.45;;;15.20;99.90;;;;;;4944002;28;39129;-77
2022/05/25 07:18:37;;;;;;;15.40;10.77;;;15.40;99.90;;;;;;4949218;28;38639;-75
2022/05/25 07:21:10;;;;;;;18.63;12.63;;;15.10;99.90;;;;;;4947394;28;37856;-75
2022/05/25 07:23:38;;;;;;;15.90;12.25;;;15.10;99.90;;;;;;4965526;28;39600;-76
2022/05/25 07:26:06;;;;;;;17.23;12.52;;;14.90;99.90;;;;;;4967896;28;39555;-75
2022/05/25 07:28:36;;;;;;;16.00;10.80;;;14.80;99.90;;;;;;4946457;28;38934;-75
2022/05/25 07:31:25;;;;;;;18.02;10.48;;;15.20;99.90;;;;;;4964876;28;39270;-76
2022/05/25 07:34:30;;;;;;;18.20;9.57;;;15.60;99.90;;;;;;4948324;28;38545;-76
2022/05/25 07:37:05;;;;;;;15.20;9.73;;;15.80;99.90;;;;;;4944626;28;46910;-76
2022/05/25 07:39:40;;;;;;;18.85;9.25;;;15.80;99.90;;;;;;4947724;28;49066;-76
2022/05/25 07:42:07;;;;;;;17.27;8.80;;;15.60;99.90;;;;;;4948768;28;37977;-76
2022/05/25 07:44:42;;;;;;;15.00;9.50;;;15.50;99.90;;;;;;4949141;28;37970;-76
2022/05/25 07:47:09;;;;;;;14.38;7.70;;;15.80;99.90;;;;;;4962080;28;39558;-76
2022/05/25 07:49:35;;;;;;;9.43;5.78;;;15.90;99.90;;;;;;4946219;28;37508;-76
2022/05/25 07:52:04;;;;;;;11.10;5.93;;;16.50;99.90;;;;;;4964306;28;37664;-76
2022/05/25 07:54:31;;;;;;;13.68;6.07;;;16.80;99.90;;;;;;4940354;28;49096;-77
2022/05/25 07:56:59;;;;;;;9.95;5.15;;;17.00;99.90;;;;;;4948358;28;39635;-77
2022/05/25 07:59:25;;;;;;;10.82;4.90;;;17.30;99.90;;;;;;4940332;28;39072;-77
2022/05/25 08:07:33;;;;;;;10.85;3.47;;;17.20;99.90;;;;;;4950213;28;49698;-76
2022/05/25 08:10:12;;;;;;;9.95;3.70;;;17.30;99.90;;;;;;4951325;28;39325;-78
2022/05/25 08:12:39;;;;;;;12.05;3.42;;;17.10;99.90;;;;;;4946817;28;48988;-75
2022/05/25 08:15:07;;;;;;;7.80;2.60;;;17.10;99.90;;;;;;4946613;28;38569;-77
2022/05/25 08:17:34;;;;;;;8.68;2.65;;;17.20;99.90;;;;;;4954346;28;39873;-76
2022/05/25 08:20:01;;;;;;;5.95;2.25;;;17.40;99.90;;;;;;4949389;28;38538;-76
2022/05/25 08:22:27;;;;;;;5.25;2.38;;;17.80;99.90;;;;;;4947510;28;47008;-76
2022/05/25 08:24:53;;;;;;;6.70;2.50;;;18.10;99.90;;;;;;4946455;28;38702;-76
2022/05/25 08:27:19;;;;;;;4.97;2.25;;;18.00;99.90;;;;;;4945677;28;38570;-76
2022/05/25 08:29:45;;;;;;;4.18;1.70;;;18.10;99.90;;;;;;4955146;28;39963;-75
2022/05/25 08:32:11;;;;;;;8.25;2.05;;;18.10;99.90;;;;;;4950950;28;37590;-75
2022/05/25 08:34:38;;;;;;;5.75;2.10;;;18.30;99.90;;;;;;4950083;28;40254;-76
2022/05/25 08:37:05;;;;;;;4.32;1.90;;;18.30;99.90;;;;;;4945922;28;38150;-76
2022/05/25 08:39:31;;;;;;;4.60;1.60;;;18.40;99.90;;;;;;4952909;28;39008;-73
2022/05/25 08:42:00;;;;;;;2.97;1.27;;;18.50;99.90;;;;;;4946394;28;37324;-73
2022/05/25 08:44:27;;;;;;;9.75;1.60;;;18.60;99.90;;;;;;4930596;28;41899;-73
2022/05/25 08:46:56;;;;;;;4.57;1.02;;;18.80;99.90;;;;;;4935685;28;38736;-74
2022/05/25 08:49:25;;;;;;;7.90;1.73;;;19.10;99.90;;;;;;4965409;28;39091;-73
2022/05/25 08:51:57;;;;;;;2.05;0.95;;;19.00;99.90;;;;;;4948912;28;37039;-74
2022/05/25 08:54:27;;;;;;;2.58;0.90;;;18.90;99.90;;;;;;4948576;28;39613;-73
2022/05/25 08:57:12;;;;;;;3.83;0.90;;;18.90;99.90;;;;;;4955401;28;39649;-73
2022/05/25 08:59:49;;;;;;;3.70;0.85;;;18.90;99.90;;;;;;4956966;28;47107;-75
2022/05/25 09:02:46;;;;;;;7.03;1.15;;;18.00;99.90;;;;;;4956577;28;36661;-76
2022/05/25 09:05:32;;;;;;;2.78;0.88;;;17.70;99.90;;;;;;4949990;28;38641;-76
2022/05/25 09:08:21;;;;;;;4.05;0.88;;;17.80;99.90;;;;;;4952049;28;38867;-75
2022/05/25 09:11:04;;;;;;;4.93;0.80;;;18.30;99.90;;;;;;4966094;28;47487;-76
2022/05/25 09:13:40;;;;;;;4.63;0.70;;;18.50;99.90;;;;;;4945719;28;47332;-76
2022/05/25 09:16:17;;;;;;;7.20;1.17;;;18.20;99.90;;;;;;4950925;28;38196;-76
2022/05/25 09:19:00;;;;;;;3.47;1.00;;;18.10;99.90;;;;;;4948290;28;39698;-75
2022/05/25 09:21:31;;;;;;;3.85;0.80;;;18.30;99.90;;;;;;4968335;28;47363;-76
2022/05/25 09:24:02;;;;;;;4.93;1.05;;;18.10;99.90;;;;;;4961265;28;39189;-76
2022/05/25 09:26:28;;;;;;;6.60;0.98;;;18.20;99.90;;;;;;4951101;28;46821;-76
2022/05/25 09:28:59;;;;;;;6.65;1.10;;;18.60;99.90;;;;;;4959207;28;40242;-74
2022/05/25 09:31:31;;;;;;;4.80;0.95;;;18.90;99.90;;;;;;4956003;28;37889;-74
2022/05/25 09:34:06;;;;;;;3.85;1.00;;;19.60;99.90;;;;;;4956492;28;38384;-74
2022/05/25 09:36:47;;;;;;;3.90;0.60;;;19.40;99.90;;;;;;4948723;28;48597;-75
2022/05/25 09:39:38;;;;;;;4.45;1.05;;;19.40;99.90;;;;;;4946813;28;39157;-74
2022/05/25 09:42:06;;;;;;;2.95;0.73;;;19.00;99.90;;;;;;4951234;28;38953;-74
2022/05/25 09:44:32;;;;;;;6.75;1.02;;;19.50;99.90;;;;;;4952584;28;37285;-74
2022/05/25 09:47:06;;;;;;;7.45;1.20;;;19.80;99.90;;;;;;4950997;28;38515;-74
2022/05/25 09:49:38;;;;;;;3.08;0.80;;;19.30;99.90;;;;;;4944261;28;47608;-74
2022/05/25 09:52:13;;;;;;;4.03;1.23;;;19.40;99.90;;;;;;4936979;28;37921;-75
2022/05/25 09:54:48;;;;;;;2.50;1.10;;;19.50;99.90;;;;;;4936626;28;37213;-75
2022/05/25 09:57:26;;;;;;;3.95;0.63;;;19.40;99.90;;;;;;4913302;28;40276;-75
2022/05/25 10:00:04;;;;;;;5.47;0.63;;;18.90;99.90;;;;;;4923094;28;39833;-75
2022/05/25 10:02:42;;;;;;;4.55;0.65;;;18.70;99.90;;;;;;4957856;28;48679;-76
2022/05/25 10:05:16;;;;;;;4.43;1.17;;;19.00;99.90;;;;;;4925239;28;37188;-77
2022/05/25 10:07:55;;;;;;;6.85;1.42;;;19.30;99.90;;;;;;4926248;28;38825;-76
2022/05/25 10:10:28;;;;;;;3.80;1.13;;;19.70;99.90;;;;;;4949708;28;38087;-76
2022/05/25 10:13:20;;;;;;;7.50;0.98;;;19.60;99.90;;;;;;4949839;28;38961;-76
2022/05/25 10:15:51;;;;;;;3.40;0.85;;;18.50;99.90;;;;;;4946023;28;48073;-77
2022/05/25 10:18:34;;;;;;;4.05;1.13;;;18.20;99.90;;;;;;4962085;28;39722;-76
2022/05/25 10:21:02;;;;;;;4.13;0.80;;;18.40;99.90;;;;;;4944913;28;40449;-79
2022/05/25 10:23:29;;;;;;;4.72;0.77;;;18.70;99.90;;;;;;4945627;28;49392;-76
2022/05/25 10:26:06;;;;;;;0.95;0.25;;;18.90;99.90;;;;;;4960001;28;38479;-76
2022/05/25 10:28:35;;;;;;;3.45;0.85;;;19.10;99.90;;;;;;4945598;28;47767;-76
2022/05/25 10:37:06;;;;;;;2.40;0.50;;;19.60;99.90;;;;;;4945084;28;49346;-76
2022/05/25 10:39:43;;;;;;;3.40;0.80;;;19.80;99.90;;;;;;4941377;28;45777;-76
2022/05/25 10:42:23;;;;;;;5.10;0.75;;;20.10;99.90;;;;;;4940819;28;39000;-75
2022/05/25 10:45:07;;;;;;;5.43;0.70;;;20.20;99.90;;;;;;4936967;28;39138;-76
2022/05/25 10:48:15;;;;;;;1.65;0.43;;;20.20;99.90;;;;;;4934965;28;47300;-77
2022/05/25 10:50:52;;;;;;;1.35;0.60;;;20.20;99.90;;;;;;4946777;28;48439;-74
2022/05/25 10:53:36;;;;;;;1.42;0.40;;;20.10;99.90;;;;;;4946769;28;38690;-74
2022/05/25 10:56:30;;;;;;;2.97;0.50;;;20.00;99.90;;;;;;4946536;28;38706;-75
2022/05/25 10:59:02;;;;;;;1.90;0.45;;;19.80;99.90;;;;;;4943700;28;38257;-74
2022/05/25 11:01:37;;;;;;;2.70;0.50;;;19.70;99.90;;;;;;4962548;28;41217;-75
2022/05/25 11:04:12;;;;;;;2.00;0.50;;;19.70;99.90;;;;;;4947552;28;40278;-76
2022/05/25 11:07:04;;;;;;;2.75;0.70;;;20.20;99.90;;;;;;4958949;28;39050;-75
2022/05/25 11:10:16;;;;;;;2.75;0.60;;;20.40;99.90;;;;;;4943691;28;48478;-76
2022/05/25 11:13:15;;;;;;;2.92;0.70;;;20.20;99.90;;;;;;4959605;28;46976;-75
2022/05/25 11:15:48;;;;;;;5.32;1.23;;;20.10;99.90;;;;;;4945510;28;47589;-76
2022/05/25 11:18:39;;;;;;;3.65;0.70;;;19.90;99.90;;;;;;4946044;28;40495;-74
2022/05/25 11:21:22;;;;;;;4.30;1.05;;;19.40;99.90;;;;;;4971235;28;39025;-76
2022/05/25 11:24:13;;;;;;;3.20;0.77;;;18.90;99.90;;;;;;4959333;28;38717;-75
2022/05/25 11:26:57;;;;;;;5.78;0.93;;;18.80;99.90;;;;;;4964020;28;46841;-74
2022/05/25 11:29:48;;;;;;;5.35;0.77;;;18.70;99.90;;;;;;4950333;28;39536;-75
2022/05/25 11:32:36;;;;;;;5.47;1.50;;;18.70;99.90;;;;;;4947272;28;37916;-75
2022/05/25 11:35:33;;;;;;;4.82;1.00;;;18.40;99.90;;;;;;4964753;28;40835;-76
2022/05/25 11:38:11;;;;;;;3.20;0.90;;;18.80;99.90;;;;;;4966035;28;40707;-73
2022/05/25 11:40:58;;;;;;;4.10;0.90;;;19.60;99.90;;;;;;4950326;28;48722;-74
2022/05/25 11:43:48;;;;;;;3.55;1.00;;;20.10;99.90;;;;;;4964355;28;38875;-74
2022/05/25 11:46:37;;;;;;;4.50;1.13;;;20.00;99.90;;;;;;4946733;28;38625;-74
2022/05/25 11:49:41;;;;;;;4.88;0.95;;;20.20;99.90;;;;;;4951509;28;38783;-75
2022/05/25 11:52:22;;;;;;;6.05;1.20;;;20.30;99.90;;;;;;4949948;28;39216;-75
2022/05/25 11:55:03;;;;;;;8.10;0.65;;;20.40;99.90;;;;;;4952338;28;38107;-74
2022/05/25 11:58:01;;;;;;;4.50;0.85;;;20.10;99.90;;;;;;4954955;28;48405;-73
2022/05/25 12:00:54;;;;;;;5.03;1.00;;;20.10;99.90;;;;;;4947269;28;39640;-75
2022/05/25 12:03:38;;;;;;;2.97;0.90;;;19.80;99.90;;;;;;4957682;28;39293;-74
2022/05/25 12:06:40;;;;;;;4.57;1.05;;;19.60;99.90;;;;;;4938994;28;36829;-74
2022/05/25 12:09:43;;;;;;;3.50;0.90;;;19.50;99.90;;;;;;4953394;28;39353;-73
2022/05/25 12:12:25;;;;;;;3.80;0.90;;;19.60;99.90;;;;;;4956318;28;39545;-73
2022/05/25 12:15:09;;;;;;;8.18;1.65;;;19.40;99.90;;;;;;4947958;28;40239;-74
2022/05/25 12:17:38;;;;;;;3.50;1.52;;;19.00;99.90;;;;;;4951439;28;48818;-74
2022/05/25 12:20:09;;;;;;;4.70;1.13;;;18.90;99.90;;;;;;4949229;28;39542;-74
2022/05/25 12:22:36;;;;;;;5.47;1.13;;;19.10;99.90;;;;;;4956013;28;39546;-75
2022/05/25 12:25:07;;;;;;;4.25;1.63;;;19.40;99.90;;;;;;4946598;28;40077;-75
2022/05/25 12:27:40;;;;;;;5.57;1.40;;;19.50;99.90;;;;;;4959604;28;37996;-73
2022/05/25 12:30:10;;;;;;;10.02;1.35;;;19.40;99.90;;;;;;4956542;28;38854;-74
2022/05/25 12:32:39;;;;;;;5.78;1.38;;;19.30;99.90;;;;;;4946676;28;40164;-75
2022/05/25 12:35:08;;;;;;;5.43;1.00;;;19.20;99.90;;;;;;4956383;28;39028;-75
2022/05/25 12:37:40;;;;;;;8.40;1.58;;;19.10;99.90;;;;;;4967205;28;38180;-74
2022/05/25 12:40:10;;;;;;;11.23;2.10;;;18.90;99.90;;;;;;4952180;28;40504;-75
2022/05/25 12:42:39;;;;;;;5.63;1.02;;;18.90;99.90;;;;;;4954081;28;39605;-74
2022/05/25 12:48:32;;;;;;;;;;;18.90;99.90;;;;;;4953537;28;38506;-74
2022/05/25 12:51:08;;;;;;;7.40;1.50;;;19.00;99.90;;;;;;4959365;28;40903;-75
2022/05/25 12:53:49;;;;;;;7.43;1.25;;;19.20;99.90;;;;;;4963976;28;47899;-75
2022/05/25 12:56:18;;;;;;;7.60;1.30;;;19.10;99.90;;;;;;4956843;28;39013;-75
2022/05/25 12:58:56;;;;;;;7.38;1.67;;;19.10;99.90;;;;;;4954133;28;38520;-74
2022/05/25 13:01:27;;;;;;;8.70;1.52;;;19.40;99.90;;;;;;4947452;28;39931;-75
2022/05/25 13:03:53;;;;;;;7.63;1.40;;;19.20;99.90;;;;;;4946898;28;40769;-75
2022/05/25 13:06:43;;;;;;;6.72;1.30;;;19.40;99.90;;;;;;4946304;28;39051;-75
2022/05/25 13:09:10;;;;;;;5.70;1.30;;;19.50;99.90;;;;;;4950024;28;38910;-75
2022/05/25 13:11:51;;;;;;;9.65;1.55;;;19.40;99.90;;;;;;4950768;28;39665;-74
2022/05/25 13:14:17;;;;;;;9.60;1.98;;;19.80;99.90;;;;;;4948542;28;39556;-75
2022/05/25 13:16:46;;;;;;;10.40;1.48;;;19.90;99.90;;;;;;4954161;28;38543;-74
2022/05/25 13:19:29;;;;;;;3.97;0.93;;;19.90;99.90;;;;;;4959984;28;38915;-74
2022/05/25 13:22:02;;;;;;;;;;;19.70;99.90;;;;;;4965720;28;39843;-75
2022/05/25 13:24:35;;;;;;;6.13;1.02;;;19.60;99.90;;;;;;4972976;28;47351;-75
2022/05/25 13:27:19;;;;;;;9.45;1.52;;;19.60;99.90;;;;;;4954077;28;38852;-76
2022/05/25 13:29:51;;;;;;;5.93;1.20;;;19.60;99.90;;;;;;4948543;28;39003;-75
2022/05/25 13:32:37;;;;;;;8.38;1.33;;;19.50;99.90;;;;;;4966221;28;37672;-75